Time;durP1;ratioP1;P1;durP2;ratioP2;P2;SDS_P1;SDS_P2;PMS_P1;PMS_P2;Temp;Humidity;BMP_temperature;BMP_pressure;BME280_temperature;BME280_humidity;BME280_pressure;Samples;Min_cycle;Max_cycle;Signal;HPM_P1;HPM_P2
2023/09/15 00:00:17;;;;;;;0.80;0.50;;;16.50;99.90;;;;;;5114712;28;20415;-60
2023/09/15 00:02:44;;;;;;;0.93;0.60;;;16.50;99.90;;;;;;5114529;28;20518;-60
2023/09/15 00:05:13;;;;;;;2.20;0.60;;;16.50;99.90;;;;;;5114877;28;20870;-62
2023/09/15 00:07:40;;;;;;;0.93;0.50;;;16.50;99.90;;;;;;5114604;28;20455;-60
2023/09/15 00:10:11;;;;;;;1.10;0.50;;;16.60;99.90;;;;;;5115600;28;20415;-60
2023/09/15 00:12:38;;;;;;;0.70;0.50;;;16.60;99.90;;;;;;5115092;28;20419;-60
2023/09/15 00:15:07;;;;;;;1.00;0.50;;;16.50;99.90;;;;;;5114568;28;20431;-60
2023/09/15 00:17:36;;;;;;;0.80;0.50;;;16.50;99.90;;;;;;5114881;28;20484;-60
2023/09/15 00:20:12;;;;;;;0.80;0.50;;;16.50;99.90;;;;;;5115043;28;20435;-59
2023/09/15 00:22:42;;;;;;;0.95;0.50;;;16.40;99.90;;;;;;5114815;28;20843;-61
2023/09/15 00:25:10;;;;;;;0.80;0.50;;;16.40;99.90;;;;;;5115303;28;20416;-59
2023/09/15 00:27:38;;;;;;;1.90;0.50;;;16.30;1.00;;;;;;5114854;28;20450;-61
2023/09/15 00:30:08;;;;;;;0.88;0.55;;;16.30;1.00;;;;;;5115313;28;20469;-61
2023/09/15 00:32:36;;;;;;;0.70;0.50;;;16.30;1.00;;;;;;5115140;28;20531;-60
2023/09/15 00:35:03;;;;;;;1.10;0.60;;;16.30;1.00;;;;;;5114791;28;20448;-60
2023/09/15 00:37:30;;;;;;;1.20;0.57;;;16.30;1.00;;;;;;5113955;28;20427;-60
2023/09/15 00:39:59;;;;;;;0.70;0.50;;;16.30;1.00;;;;;;5112983;28;20499;-61
2023/09/15 00:42:26;;;;;;;0.88;0.50;;;16.30;1.00;;;;;;5113228;28;20871;-61
2023/09/15 00:44:53;;;;;;;0.90;0.50;;;16.30;1.00;;;;;;5112315;28;20507;-61
2023/09/15 00:47:21;;;;;;;1.35;0.60;;;16.20;1.00;;;;;;5112915;28;20432;-61
2023/09/15 00:49:48;;;;;;;0.80;0.50;;;16.10;1.00;;;;;;5113214;28;20420;-61
2023/09/15 00:52:16;;;;;;;0.90;0.60;;;16.10;1.00;;;;;;5113243;28;20428;-61
2023/09/15 00:54:43;;;;;;;0.80;0.50;;;16.00;1.00;;;;;;5113490;28;20412;-61
2023/09/15 00:57:12;;;;;;;0.80;0.50;;;16.10;1.00;;;;;;5117842;28;20424;-60
2023/09/15 00:59:40;;;;;;;1.20;0.50;;;16.10;1.00;;;;;;5117999;28;20424;-61
2023/09/15 01:02:08;;;;;;;0.80;0.50;;;16.10;1.00;;;;;;5117553;28;20519;-61
2023/09/15 01:04:36;;;;;;;1.80;0.60;;;16.10;1.00;;;;;;5119104;28;20423;-60
2023/09/15 01:07:05;;;;;;;0.80;0.50;;;16.10;1.00;;;;;;5117886;28;20435;-61
2023/09/15 01:09:32;;;;;;;1.13;0.50;;;16.10;1.00;;;;;;5117488;28;20413;-61
2023/09/15 01:11:59;;;;;;;1.00;0.50;;;16.10;1.00;;;;;;5117328;28;20703;-61
2023/09/15 01:14:28;;;;;;;0.90;0.50;;;16.10;1.00;;;;;;5118455;28;20454;-61
2023/09/15 01:17:03;;;;;;;0.90;0.50;;;16.00;1.00;;;;;;5118422;28;20738;-61
2023/09/15 01:19:54;;;;;;;1.20;0.50;;;16.10;1.00;;;;;;5116936;28;20423;-62
2023/09/15 01:22:48;;;;;;;0.80;0.50;;;16.00;1.00;;;;;;5113626;28;20991;-59
2023/09/15 01:25:51;;;;;;;1.50;0.50;;;16.00;1.00;;;;;;5114615;28;20727;-60
2023/09/15 01:28:38;;;;;;;0.70;0.40;;;16.00;1.00;;;;;;5114175;28;20851;-60
2023/09/15 01:31:09;;;;;;;0.90;0.50;;;16.00;1.00;;;;;;5114309;28;20419;-60
2023/09/15 01:33:38;;;;;;;1.05;0.50;;;16.00;1.00;;;;;;5114605;28;20457;-60
2023/09/15 01:36:06;;;;;;;1.60;0.50;;;15.90;1.00;;;;;;5116928;28;20785;-60
2023/09/15 01:38:33;;;;;;;0.90;0.50;;;16.00;1.00;;;;;;5118348;28;20416;-60
2023/09/15 01:41:01;;;;;;;0.90;0.50;;;16.00;1.00;;;;;;5117570;28;20424;-60
2023/09/15 01:43:28;;;;;;;1.48;0.60;;;16.00;1.00;;;;;;5116932;28;20424;-61
2023/09/15 01:45:55;;;;;;;1.00;0.50;;;16.00;1.00;;;;;;5116120;28;20819;-60
2023/09/15 01:48:24;;;;;;;0.80;0.50;;;16.00;1.00;;;;;;5117506;28;20431;-60
2023/09/15 01:50:54;;;;;;;1.20;0.50;;;16.00;1.00;;;;;;5117849;28;20881;-60
2023/09/15 01:53:21;;;;;;;2.05;0.60;;;16.00;1.00;;;;;;5117156;28;20562;-60
2023/09/15 01:55:50;;;;;;;0.80;0.50;;;16.00;1.00;;;;;;5114224;28;20424;-60
2023/09/15 01:58:18;;;;;;;2.08;0.70;;;16.00;1.00;;;;;;5114585;28;20420;-60
2023/09/15 02:00:46;;;;;;;0.80;0.50;;;16.00;1.00;;;;;;5114240;28;20440;-60
2023/09/15 02:03:14;;;;;;;0.80;0.50;;;16.00;1.00;;;;;;5114448;28;20765;-60
2023/09/15 02:05:43;;;;;;;1.00;0.50;;;16.00;1.00;;;;;;5113672;28;20478;-60
2023/09/15 02:08:10;;;;;;;1.10;0.60;;;16.00;1.00;;;;;;5114284;28;20719;-60
2023/09/15 02:10:37;;;;;;;1.00;0.50;;;16.00;1.00;;;;;;5116975;28;20416;-61
2023/09/15 02:13:04;;;;;;;0.70;0.50;;;16.00;1.00;;;;;;5117117;28;20469;-60
2023/09/15 02:15:31;;;;;;;1.90;0.60;;;16.00;1.00;;;;;;5116126;28;20408;-60
2023/09/15 02:17:59;;;;;;;1.00;0.60;;;15.90;1.00;;;;;;5116753;28;20427;-60
2023/09/15 02:20:27;;;;;;;1.00;0.60;;;15.90;1.00;;;;;;5116537;28;20523;-61
2023/09/15 02:22:57;;;;;;;0.82;0.57;;;15.80;1.00;;;;;;5116897;28;20460;-60
2023/09/15 02:25:24;;;;;;;1.17;0.60;;;15.80;1.00;;;;;;5115663;28;20861;-60
2023/09/15 02:27:51;;;;;;;1.00;0.50;;;15.70;1.00;;;;;;5116320;28;20428;-60
2023/09/15 02:30:18;;;;;;;1.40;0.60;;;15.70;1.00;;;;;;5116816;28;20412;-61
2023/09/15 02:32:45;;;;;;;1.40;0.60;;;15.60;1.00;;;;;;5116997;28;20420;-60
2023/09/15 02:35:12;;;;;;;0.77;0.50;;;15.60;1.00;;;;;;5116400;28;20427;-60
2023/09/15 02:37:39;;;;;;;1.05;0.50;;;15.50;1.00;;;;;;5110377;28;20517;-60
2023/09/15 02:40:08;;;;;;;1.50;0.60;;;15.50;1.00;;;;;;5115709;28;20420;-60
2023/09/15 02:42:36;;;;;;;1.20;0.60;;;15.50;1.00;;;;;;5115954;28;20412;-60
2023/09/15 02:45:05;;;;;;;1.15;0.60;;;15.50;1.00;;;;;;5116811;28;20420;-60
2023/09/15 02:47:32;;;;;;;0.85;0.60;;;15.50;1.00;;;;;;5116719;28;20440;-60
2023/09/15 02:49:59;;;;;;;0.90;0.60;;;15.50;1.00;;;;;;5116788;28;20459;-60
2023/09/15 02:52:26;;;;;;;1.17;0.60;;;15.50;1.00;;;;;;5114715;28;20424;-60
2023/09/15 02:54:53;;;;;;;1.30;0.60;;;15.50;1.00;;;;;;5114201;28;20403;-60
2023/09/15 02:57:22;;;;;;;1.20;0.60;;;15.40;1.00;;;;;;5116285;28;20847;-60
2023/09/15 02:59:50;;;;;;;0.80;0.50;;;15.40;1.00;;;;;;5116889;28;20420;-60
2023/09/15 03:02:17;;;;;;;1.02;0.60;;;15.30;1.00;;;;;;5115803;28;20527;-60
2023/09/15 03:04:46;;;;;;;0.90;0.60;;;15.30;1.00;;;;;;5116073;28;20473;-60
2023/09/15 03:07:14;;;;;;;1.40;0.60;;;15.30;1.00;;;;;;5116353;28;20420;-61
2023/09/15 03:09:41;;;;;;;1.38;0.70;;;15.20;1.00;;;;;;5116246;28;20428;-60
2023/09/15 03:12:09;;;;;;;1.70;0.60;;;15.20;1.00;;;;;;5116246;28;20426;-60
2023/09/15 03:14:39;;;;;;;1.05;0.60;;;15.30;1.00;;;;;;5115937;28;20424;-60
2023/09/15 03:17:06;;;;;;;1.00;0.60;;;15.20;1.00;;;;;;5116242;28;20421;-60
2023/09/15 03:19:34;;;;;;;1.08;0.60;;;15.20;1.00;;;;;;5115352;28;20503;-60
2023/09/15 03:22:01;;;;;;;1.40;0.60;;;15.20;1.00;;;;;;5114274;28;20416;-60
2023/09/15 03:24:28;;;;;;;1.60;0.60;;;15.20;1.00;;;;;;5112060;28;20412;-60
2023/09/15 03:26:57;;;;;;;1.20;0.60;;;15.10;1.00;;;;;;5112192;28;20712;-60
2023/09/15 03:29:24;;;;;;;1.20;0.70;;;15.00;1.00;;;;;;5111811;28;20424;-60
2023/09/15 03:31:54;;;;;;;0.80;0.60;;;15.00;1.00;;;;;;5111617;28;20424;-60
2023/09/15 03:34:21;;;;;;;1.10;0.60;;;14.80;1.00;;;;;;5112310;28;20819;-60
2023/09/15 03:36:48;;;;;;;1.50;0.60;;;14.80;1.00;;;;;;5113480;28;20404;-60
2023/09/15 03:39:15;;;;;;;0.80;0.50;;;14.80;1.00;;;;;;5115111;28;20492;-61
2023/09/15 03:41:43;;;;;;;1.10;0.50;;;14.80;1.00;;;;;;5113752;28;20420;-60
2023/09/15 03:44:10;;;;;;;1.35;0.60;;;14.90;1.00;;;;;;5112172;28;20486;-60
2023/09/15 03:46:39;;;;;;;0.90;0.60;;;14.90;1.00;;;;;;5112382;28;20430;-60
2023/09/15 03:49:07;;;;;;;1.42;0.60;;;14.90;1.00;;;;;;5110794;28;20528;-60
2023/09/15 03:51:34;;;;;;;1.02;0.50;;;14.90;1.00;;;;;;5111601;28;20408;-60
2023/09/15 03:54:02;;;;;;;2.30;0.63;;;14.90;1.00;;;;;;5111408;28;20412;-60
2023/09/15 03:56:30;;;;;;;1.30;0.60;;;14.80;1.00;;;;;;5110790;28;20416;-60
2023/09/15 03:58:58;;;;;;;1.08;0.60;;;14.90;1.00;;;;;;5114571;28;20843;-60
2023/09/15 04:01:28;;;;;;;0.90;0.60;;;14.80;1.00;;;;;;5114819;28;20507;-60
2023/09/15 04:03:56;;;;;;;1.87;0.70;;;14.80;1.00;;;;;;5115103;28;20469;-59
2023/09/15 04:06:24;;;;;;;0.90;0.60;;;14.80;1.00;;;;;;5115490;28;20408;-60
2023/09/15 04:08:52;;;;;;;1.77;0.60;;;14.80;1.00;;;;;;5114765;28;20435;-60
2023/09/15 04:11:19;;;;;;;1.15;0.70;;;14.80;1.00;;;;;;5098321;28;20689;-60
2023/09/15 04:13:46;;;;;;;1.70;0.60;;;14.80;1.00;;;;;;5115480;28;20422;-60
2023/09/15 04:16:13;;;;;;;1.40;0.60;;;14.80;1.00;;;;;;5114858;28;20442;-60
2023/09/15 04:18:41;;;;;;;1.10;0.60;;;14.80;1.00;;;;;;5115206;28;20415;-60
2023/09/15 04:21:08;;;;;;;1.10;0.70;;;14.80;1.00;;;;;;5114258;28;20416;-60
2023/09/15 04:23:37;;;;;;;1.63;0.60;;;14.70;1.00;;;;;;5113780;28;20416;-60
2023/09/15 04:26:04;;;;;;;1.40;0.70;;;14.70;1.00;;;;;;5113592;28;20423;-60
2023/09/15 04:28:32;;;;;;;1.70;0.60;;;14.70;1.00;;;;;;5113147;28;20436;-59
2023/09/15 04:30:59;;;;;;;1.00;0.80;;;14.60;1.00;;;;;;5117291;28;20823;-58
2023/09/15 04:33:26;;;;;;;1.10;0.60;;;14.60;1.00;;;;;;5117440;28;20412;-60
2023/09/15 04:35:53;;;;;;;1.27;0.60;;;14.60;1.00;;;;;;5116459;28;20412;-60
2023/09/15 04:38:20;;;;;;;1.00;0.60;;;14.60;1.00;;;;;;5117650;28;20416;-60
2023/09/15 04:40:49;;;;;;;1.00;0.60;;;14.60;1.00;;;;;;5118145;28;20427;-60
2023/09/15 04:43:17;;;;;;;0.90;0.60;;;14.50;1.00;;;;;;5118923;27;20428;-60
2023/09/15 04:45:44;;;;;;;1.85;0.70;;;14.60;1.00;;;;;;5117275;28;20488;-60
2023/09/15 04:48:11;;;;;;;1.50;0.80;;;14.50;1.00;;;;;;5115980;28;20735;-60
2023/09/15 04:50:39;;;;;;;1.60;0.60;;;14.50;1.00;;;;;;5118363;28;20427;-61
2023/09/15 04:53:07;;;;;;;1.27;0.60;;;14.50;1.00;;;;;;5115206;28;20464;-61
2023/09/15 04:55:34;;;;;;;1.35;0.60;;;14.50;1.00;;;;;;5117291;28;20432;-60
2023/09/15 04:58:03;;;;;;;1.20;0.70;;;14.50;1.00;;;;;;5116479;28;20864;-60
2023/09/15 05:00:34;;;;;;;2.30;0.75;;;14.50;1.00;;;;;;5116900;28;20416;-61
2023/09/15 05:03:02;;;;;;;1.30;0.60;;;14.50;1.00;;;;;;5118322;28;20428;-62
2023/09/15 05:05:30;;;;;;;2.13;0.70;;;14.50;1.00;;;;;;5117680;28;20424;-62
2023/09/15 05:07:57;;;;;;;1.00;0.60;;;14.50;1.00;;;;;;5116788;28;20423;-61
2023/09/15 05:10:24;;;;;;;1.10;0.60;;;14.60;1.00;;;;;;5117293;28;20420;-62
2023/09/15 05:12:51;;;;;;;1.00;0.63;;;14.70;1.00;;;;;;5116796;28;20416;-62
2023/09/15 05:15:20;;;;;;;1.10;0.60;;;14.90;1.00;;;;;;5117803;28;20422;-61
2023/09/15 05:17:47;;;;;;;1.10;0.60;;;14.80;1.00;;;;;;5117501;28;20432;-61
2023/09/15 05:20:14;;;;;;;1.90;0.60;;;15.00;1.00;;;;;;5117279;28;20420;-61
2023/09/15 05:22:41;;;;;;;1.10;0.60;;;15.00;1.00;;;;;;5109924;28;20469;-60
2023/09/15 05:25:08;;;;;;;2.22;0.70;;;14.90;1.00;;;;;;5113244;28;20416;-61
2023/09/15 05:27:36;;;;;;;1.70;0.73;;;14.80;1.00;;;;;;5113923;28;20414;-60
2023/09/15 05:30:03;;;;;;;1.60;0.70;;;14.80;1.00;;;;;;5114043;28;20871;-60
2023/09/15 05:32:32;;;;;;;1.30;0.70;;;14.80;1.00;;;;;;5115122;28;20424;-60
2023/09/15 05:35:02;;;;;;;1.10;0.60;;;14.80;1.00;;;;;;5111498;28;20431;-60
2023/09/15 05:37:29;;;;;;;1.20;0.70;;;14.80;1.00;;;;;;5113068;28;20521;-60
2023/09/15 05:39:56;;;;;;;1.27;0.70;;;14.80;1.00;;;;;;5113434;28;20467;-59
2023/09/15 05:42:23;;;;;;;2.20;0.80;;;14.80;1.00;;;;;;5115899;28;20427;-60
2023/09/15 05:44:54;;;;;;;1.08;0.60;;;14.80;1.00;;;;;;5116471;28;20461;-60
2023/09/15 05:47:21;;;;;;;1.30;0.70;;;14.80;1.00;;;;;;5114478;28;20424;-60
2023/09/15 05:49:50;;;;;;;1.30;0.70;;;14.80;1.00;;;;;;5115207;28;20473;-64
2023/09/15 05:52:17;;;;;;;1.20;0.70;;;14.90;1.00;;;;;;5116205;28;20447;-60
2023/09/15 05:54:44;;;;;;;2.28;0.80;;;15.00;1.00;;;;;;5092522;28;20551;-60
2023/09/15 05:57:11;;;;;;;1.23;0.60;;;15.00;1.00;;;;;;5103172;28;20883;-61
2023/09/15 05:59:38;;;;;;;1.30;0.70;;;15.00;1.00;;;;;;5096396;28;20428;-60
2023/09/15 06:02:07;;;;;;;1.20;0.60;;;15.00;1.00;;;;;;5104346;28;20850;-60
2023/09/15 06:04:34;;;;;;;1.00;0.60;;;15.00;1.00;;;;;;5109255;28;20879;-59
2023/09/15 06:07:02;;;;;;;2.00;0.80;;;15.00;1.00;;;;;;5094883;28;20414;-59
2023/09/15 06:09:29;;;;;;;1.20;0.70;;;14.90;1.00;;;;;;5094462;28;20879;-60
2023/09/15 06:11:56;;;;;;;1.38;0.80;;;15.00;1.00;;;;;;5092722;28;20760;-59
2023/09/15 06:14:24;;;;;;;1.00;0.60;;;15.00;1.00;;;;;;5093402;28;20871;-60
2023/09/15 06:16:51;;;;;;;1.00;0.60;;;14.90;1.00;;;;;;5092830;28;20426;-60
2023/09/15 06:19:18;;;;;;;1.90;0.73;;;14.90;1.00;;;;;;5099514;28;20436;-59
2023/09/15 06:21:46;;;;;;;1.00;0.60;;;14.90;1.00;;;;;;5095808;28;20412;-61
2023/09/15 06:24:14;;;;;;;1.47;0.90;;;14.90;1.00;;;;;;5105798;28;20483;-60
2023/09/15 06:26:41;;;;;;;1.20;0.73;;;14.90;1.00;;;;;;5115159;28;20412;-61
2023/09/15 06:29:09;;;;;;;1.00;0.70;;;15.00;1.00;;;;;;5106896;28;20442;-61
2023/09/15 06:31:36;;;;;;;1.50;0.87;;;15.00;1.00;;;;;;5108705;27;20441;-61
2023/09/15 06:34:04;;;;;;;1.60;0.70;;;15.10;1.00;;;;;;5107767;28;20837;-60
2023/09/15 06:36:31;;;;;;;1.65;0.80;;;15.30;1.00;;;;;;5108135;28;20412;-61
2023/09/15 06:38:58;;;;;;;1.60;0.90;;;15.40;1.00;;;;;;5113250;28;20828;-61
2023/09/15 06:41:27;;;;;;;1.50;0.90;;;15.50;1.00;;;;;;5104871;28;20843;-61
2023/09/15 06:43:54;;;;;;;1.52;0.80;;;15.60;1.00;;;;;;5095176;28;20437;-61
2023/09/15 06:46:22;;;;;;;1.60;0.90;;;15.60;1.00;;;;;;5105455;28;20519;-62
2023/09/15 06:48:50;;;;;;;1.40;0.90;;;15.60;1.00;;;;;;5108500;28;20432;-62
2023/09/15 06:51:17;;;;;;;1.67;0.90;;;15.50;1.00;;;;;;5105456;28;20416;-60
2023/09/15 06:53:45;;;;;;;1.55;0.80;;;15.50;1.00;;;;;;5112923;28;20770;-60
2023/09/15 06:56:12;;;;;;;2.50;0.90;;;15.50;1.00;;;;;;5108110;28;20436;-60
2023/09/15 06:58:40;;;;;;;1.50;0.87;;;15.80;1.00;;;;;;5114527;28;20910;-61
2023/09/15 07:01:08;;;;;;;2.33;0.90;;;16.20;1.00;;;;;;5098929;28;20416;-61
2023/09/15 07:03:35;;;;;;;1.40;0.90;;;16.50;1.00;;;;;;5100950;28;20734;-61
2023/09/15 07:06:03;;;;;;;2.88;1.20;;;16.80;1.00;;;;;;5104935;28;20417;-62
2023/09/15 07:08:30;;;;;;;1.40;0.85;;;16.90;1.00;;;;;;5101055;28;20429;-61
2023/09/15 07:10:57;;;;;;;2.20;1.00;;;16.80;1.00;;;;;;5107277;28;20527;-61
2023/09/15 07:13:24;;;;;;;1.80;1.00;;;16.90;1.00;;;;;;5105000;28;20428;-61
2023/09/15 07:15:53;;;;;;;3.35;0.90;;;16.90;1.00;;;;;;5102123;28;20428;-60
2023/09/15 07:18:20;;;;;;;2.00;0.82;;;16.80;1.00;;;;;;5112567;28;20751;-61
2023/09/15 07:20:47;;;;;;;1.27;0.80;;;16.80;1.00;;;;;;5100787;28;20829;-61
2023/09/15 07:23:14;;;;;;;2.00;0.80;;;17.00;1.00;;;;;;5112228;28;20435;-61
2023/09/15 07:25:45;;;;;;;1.58;0.90;;;17.30;1.00;;;;;;5094047;28;20425;-62
2023/09/15 07:28:12;;;;;;;3.30;0.90;;;17.50;99.90;;;;;;5106586;28;20805;-61
2023/09/15 07:30:41;;;;;;;1.30;1.00;;;17.50;99.90;;;;;;5108205;28;20432;-61
2023/09/15 07:33:09;;;;;;;2.10;0.90;;;17.60;99.90;;;;;;5103087;28;20435;-61
2023/09/15 07:35:36;;;;;;;1.50;0.90;;;17.50;99.90;;;;;;5103777;28;20426;-61
2023/09/15 07:38:04;;;;;;;2.00;0.90;;;17.60;99.90;;;;;;5112937;28;20416;-61
2023/09/15 07:40:31;;;;;;;1.90;1.00;;;17.80;99.90;;;;;;5106086;28;20423;-62
2023/09/15 07:42:59;;;;;;;3.17;1.00;;;17.80;99.90;;;;;;5106462;28;20474;-62
2023/09/15 07:45:27;;;;;;;2.10;0.88;;;17.90;99.90;;;;;;5107952;28;20888;-62
2023/09/15 07:47:54;;;;;;;1.63;1.00;;;18.00;99.90;;;;;;5101581;28;20422;-62
2023/09/15 07:50:23;;;;;;;2.20;1.00;;;18.20;99.90;;;;;;5102797;28;20735;-62
2023/09/15 07:52:50;;;;;;;2.30;1.20;;;18.10;99.90;;;;;;5095502;28;20416;-62
2023/09/15 07:55:17;;;;;;;2.43;1.00;;;18.00;99.90;;;;;;5098250;27;20737;-62
2023/09/15 07:57:44;;;;;;;1.70;1.00;;;18.00;99.90;;;;;;5117996;27;20423;-62
2023/09/15 08:00:12;;;;;;;2.50;1.00;;;18.10;99.90;;;;;;5139454;27;20838;-63
2023/09/15 08:02:39;;;;;;;2.60;0.95;;;18.30;99.90;;;;;;5131310;27;20418;-63
2023/09/15 08:05:07;;;;;;;1.92;0.90;;;18.40;99.90;;;;;;5135388;27;20446;-63
2023/09/15 08:07:36;;;;;;;1.90;1.00;;;18.40;58.20;;;;;;5134719;27;20420;-61
2023/09/15 08:10:03;;;;;;;1.40;0.90;;;18.50;76.20;;;;;;5128414;28;20427;-61
2023/09/15 08:12:31;;;;;;;1.83;1.10;;;18.60;7.90;;;;;;5135578;27;20413;-61
2023/09/15 08:14:58;;;;;;;1.70;1.00;;;18.70;1.00;;;;;;5133117;27;20885;-61
2023/09/15 08:17:26;;;;;;;1.50;1.00;;;18.60;1.00;;;;;;5131973;27;20530;-61
2023/09/15 08:19:54;;;;;;;2.15;1.02;;;18.50;1.00;;;;;;5132719;27;20423;-61
2023/09/15 08:22:22;;;;;;;2.00;1.10;;;18.40;99.90;;;;;;5131742;28;20433;-61
2023/09/15 08:24:51;;;;;;;1.20;0.80;;;18.40;99.90;;;;;;5125272;28;20418;-60
2023/09/15 08:27:19;;;;;;;1.77;1.00;;;18.40;99.90;;;;;;5132279;28;20887;-60
2023/09/15 08:29:46;;;;;;;1.60;0.90;;;18.60;99.90;;;;;;5130855;28;20867;-59
2023/09/15 08:32:15;;;;;;;3.20;1.10;;;18.70;99.90;;;;;;5130180;28;20422;-60
2023/09/15 08:34:42;;;;;;;2.35;1.10;;;19.00;1.00;;;;;;5130834;28;20421;-60
2023/09/15 08:37:09;;;;;;;2.10;1.00;;;19.10;1.00;;;;;;5129692;28;20434;-59
2023/09/15 08:39:36;;;;;;;2.38;1.10;;;19.10;1.00;;;;;;5130004;28;20513;-60
2023/09/15 08:42:07;;;;;;;2.47;1.20;;;19.10;1.00;;;;;;5130738;28;20410;-60
2023/09/15 08:44:35;;;;;;;1.55;0.90;;;19.00;1.00;;;;;;5130472;28;20837;-60
2023/09/15 08:47:03;;;;;;;1.42;0.90;;;19.10;1.00;;;;;;5130531;28;20504;-61
2023/09/15 08:49:31;;;;;;;3.15;1.15;;;19.20;1.00;;;;;;5130633;28;20440;-60
2023/09/15 08:51:59;;;;;;;1.70;1.10;;;19.30;1.00;;;;;;5132254;28;20584;-60
2023/09/15 08:54:27;;;;;;;2.70;1.10;;;19.50;99.90;;;;;;5131909;28;20414;-65
2023/09/15 08:56:54;;;;;;;1.45;1.00;;;19.60;99.90;;;;;;5129808;28;20410;-64
2023/09/15 08:59:24;;;;;;;2.65;1.02;;;19.80;1.00;;;;;;5130773;28;20814;-65
2023/09/15 09:01:52;;;;;;;1.80;1.00;;;20.00;1.00;;;;;;5133058;28;20418;-66
2023/09/15 09:04:19;;;;;;;2.90;1.20;;;20.00;99.90;;;;;;5124297;28;20753;-66
2023/09/15 09:06:48;;;;;;;2.90;1.10;;;20.20;91.30;;;;;;5128975;28;20417;-65
2023/09/15 09:09:16;;;;;;;1.58;1.00;;;20.20;99.90;;;;;;5132481;28;20441;-64
2023/09/15 09:11:43;;;;;;;1.37;0.80;;;20.20;1.00;;;;;;5131491;28;20418;-65
2023/09/15 09:14:12;;;;;;;2.10;1.17;;;20.30;1.00;;;;;;5132604;28;20426;-65
2023/09/15 09:16:43;;;;;;;2.38;1.10;;;20.40;1.00;;;;;;5131335;27;20500;-64
2023/09/15 09:19:11;;;;;;;1.55;1.00;;;20.50;1.00;;;;;;5132731;27;20746;-65
2023/09/15 09:21:38;;;;;;;2.00;0.93;;;20.70;1.00;;;;;;5136615;27;20410;-66
2023/09/15 09:24:06;;;;;;;1.50;1.00;;;20.80;99.90;;;;;;5136300;27;20424;-65
2023/09/15 09:26:33;;;;;;;1.35;0.80;;;20.90;1.00;;;;;;5135456;27;20418;-66
2023/09/15 09:29:02;;;;;;;1.42;0.93;;;20.90;1.00;;;;;;5132618;27;20490;-66
2023/09/15 09:31:30;;;;;;;1.33;0.90;;;21.10;1.00;;;;;;5133650;27;20747;-66
2023/09/15 09:33:59;;;;;;;2.60;1.00;;;21.10;1.00;;;;;;5133705;27;20569;-66
2023/09/15 09:36:28;;;;;;;2.00;0.90;;;21.10;1.00;;;;;;5134915;27;20403;-65
2023/09/15 09:38:55;;;;;;;1.30;0.93;;;21.20;99.90;;;;;;5135409;27;20749;-65
2023/09/15 09:41:25;;;;;;;1.60;1.10;;;21.20;99.90;;;;;;5134458;27;20517;-65
2023/09/15 09:43:52;;;;;;;2.00;1.00;;;21.20;99.90;;;;;;5115245;27;20426;-66
2023/09/15 09:46:21;;;;;;;1.40;1.00;;;21.20;1.00;;;;;;5134976;27;20425;-66
2023/09/15 09:48:49;;;;;;;2.53;0.93;;;21.50;99.90;;;;;;5134348;27;20495;-66
2023/09/15 09:51:19;;;;;;;2.33;1.00;;;21.40;99.90;;;;;;5133999;27;20419;-66
2023/09/15 09:53:47;;;;;;;1.42;1.00;;;21.50;99.90;;;;;;5135007;27;20424;-67
2023/09/15 09:56:14;;;;;;;1.33;0.98;;;21.70;99.90;;;;;;5123712;27;20458;-64
2023/09/15 09:58:41;;;;;;;1.77;0.90;;;22.00;1.00;;;;;;5112054;28;20419;-65
2023/09/15 10:01:11;;;;;;;1.77;1.17;;;22.30;1.00;;;;;;5106407;28;20422;-65
2023/09/15 10:03:38;;;;;;;1.77;1.00;;;22.50;99.90;;;;;;5102514;28;20914;-65
2023/09/15 10:06:05;;;;;;;3.80;1.20;;;22.60;99.90;;;;;;5107765;28;20423;-65
2023/09/15 10:08:34;;;;;;;1.40;0.90;;;22.80;99.90;;;;;;5113152;28;20431;-64
2023/09/15 10:11:02;;;;;;;1.50;1.10;;;22.90;96.20;;;;;;5107839;28;20431;-65
2023/09/15 10:13:31;;;;;;;2.30;1.10;;;23.00;1.00;;;;;;5098480;28;20450;-65
2023/09/15 10:15:58;;;;;;;1.50;0.85;;;23.20;1.00;;;;;;5113503;28;20435;-64
2023/09/15 10:18:27;;;;;;;1.60;0.90;;;23.20;1.00;;;;;;5111379;28;20412;-66
2023/09/15 10:20:55;;;;;;;17.00;2.50;;;23.50;1.00;;;;;;5112038;28;20424;-65
2023/09/15 10:23:24;;;;;;;5.40;1.20;;;23.80;1.00;;;;;;5106705;28;20941;-65
2023/09/15 10:25:53;;;;;;;2.20;0.90;;;24.00;1.00;;;;;;5107525;28;20427;-65
2023/09/15 10:28:22;;;;;;;1.23;0.80;;;24.00;1.00;;;;;;5111858;28;20420;-65
2023/09/15 10:30:55;;;;;;;1.83;0.80;;;24.00;1.00;;;;;;5112379;28;20446;-65
2023/09/15 10:33:23;;;;;;;4.60;1.30;;;24.20;1.00;;;;;;5113098;28;20493;-65
2023/09/15 10:35:51;;;;;;;2.20;0.90;;;24.50;99.90;;;;;;5112892;28;20423;-65
2023/09/15 10:38:27;;;;;;;1.40;0.90;;;24.80;99.90;;;;;;5111392;28;20416;-66
2023/09/15 10:40:58;;;;;;;2.90;1.00;;;25.10;99.90;;;;;;5112015;28;20871;-67
2023/09/15 10:43:25;;;;;;;1.92;1.10;;;25.30;99.90;;;;;;5111167;28;20454;-65
2023/09/15 10:45:57;;;;;;;2.05;1.00;;;25.30;99.90;;;;;;5112132;28;20498;-64
2023/09/15 10:48:25;;;;;;;1.10;0.85;;;25.10;99.90;;;;;;5105336;28;20424;-65
2023/09/15 10:50:53;;;;;;;1.70;0.93;;;25.20;99.90;;;;;;5103841;28;20647;-68
2023/09/15 10:53:21;;;;;;;3.20;1.00;;;25.30;99.90;;;;;;5108961;28;20423;-68
2023/09/15 10:55:48;;;;;;;2.83;1.10;;;25.30;99.90;;;;;;5109482;28;20720;-68
2023/09/15 10:58:18;;;;;;;1.20;0.90;;;25.50;99.90;;;;;;5110994;28;20796;-67
2023/09/15 11:00:46;;;;;;;1.90;1.00;;;25.60;99.90;;;;;;5112620;28;20411;-67
2023/09/15 11:03:14;;;;;;;2.20;1.00;;;25.70;99.90;;;;;;5111068;28;20431;-68
2023/09/15 11:05:42;;;;;;;1.27;0.80;;;25.80;99.90;;;;;;5095782;28;20431;-68
2023/09/15 11:08:11;;;;;;;1.40;0.90;;;25.80;99.90;;;;;;5114717;28;20416;-68
2023/09/15 11:10:40;;;;;;;1.35;0.90;;;25.80;99.90;;;;;;5111731;28;20698;-69
2023/09/15 11:13:08;;;;;;;2.05;0.90;;;26.00;93.40;;;;;;5109866;28;20507;-68
2023/09/15 11:15:36;;;;;;;1.70;1.00;;;26.00;81.40;;;;;;5100643;28;20439;-66
2023/09/15 11:18:06;;;;;;;1.02;0.80;;;26.20;56.80;;;;;;5112010;28;20424;-68
2023/09/15 11:20:33;;;;;;;2.60;0.90;;;26.20;41.00;;;;;;5096027;28;20865;-67
2023/09/15 11:23:00;;;;;;;1.90;0.90;;;26.20;29.80;;;;;;5093966;28;20475;-69
2023/09/15 11:25:27;;;;;;;1.90;0.90;;;25.90;28.70;;;;;;5106817;27;20496;-68
2023/09/15 11:27:55;;;;;;;0.90;0.70;;;26.00;31.30;;;;;;5133267;27;20425;-68
2023/09/15 11:30:27;;;;;;;1.20;0.90;;;25.70;36.40;;;;;;5121648;27;20430;-68
2023/09/15 11:32:59;;;;;;;1.10;0.90;;;25.70;40.50;;;;;;5111608;28;20435;-67
2023/09/15 11:35:26;;;;;;;1.30;0.90;;;26.00;26.00;;;;;;5094021;28;20422;-68
2023/09/15 11:37:54;;;;;;;1.90;0.90;;;26.30;14.30;;;;;;5092348;28;20501;-67
2023/09/15 11:40:21;;;;;;;1.25;0.90;;;26.50;1.00;;;;;;5106909;28;20493;-68
2023/09/15 11:42:56;;;;;;;1.40;1.00;;;26.70;1.00;;;;;;5113094;28;20417;-68
2023/09/15 11:45:26;;;;;;;2.05;0.80;;;26.80;1.00;;;;;;5108538;28;20430;-68
2023/09/15 11:47:56;;;;;;;1.25;0.82;;;27.00;1.00;;;;;;5093089;28;20803;-68
2023/09/15 11:50:24;;;;;;;1.10;0.70;;;26.90;1.00;;;;;;5091557;28;20911;-68
2023/09/15 11:52:51;;;;;;;1.90;0.80;;;27.20;1.00;;;;;;5107669;28;20428;-68
2023/09/15 11:55:20;;;;;;;2.10;0.90;;;27.50;1.00;;;;;;5096482;28;20436;-68
2023/09/15 11:57:50;;;;;;;1.30;0.90;;;27.30;1.00;;;;;;5093088;28;20426;-68
2023/09/15 12:00:21;;;;;;;1.90;0.90;;;26.90;1.00;;;;;;5097091;28;20728;-68
2023/09/15 12:02:49;;;;;;;1.00;0.80;;;27.00;1.00;;;;;;5110181;28;20630;-68
2023/09/15 12:05:20;;;;;;;1.83;0.90;;;27.20;1.00;;;;;;5108965;28;20428;-69
2023/09/15 12:07:48;;;;;;;1.20;0.90;;;27.50;1.00;;;;;;5100650;27;20780;-68
2023/09/15 12:10:17;;;;;;;1.50;1.08;;;27.50;1.00;;;;;;5101675;27;20424;-66
2023/09/15 12:12:45;;;;;;;1.60;0.90;;;27.50;1.00;;;;;;5110310;28;20416;-68
2023/09/15 12:15:14;;;;;;;0.90;0.70;;;27.70;1.00;;;;;;5112271;28;20535;-68
2023/09/15 12:17:42;;;;;;;1.50;0.70;;;27.60;1.00;;;;;;5111114;28;20436;-67
2023/09/15 12:20:10;;;;;;;1.30;0.80;;;27.80;1.00;;;;;;5100569;28;20721;-67
2023/09/15 12:22:43;;;;;;;2.58;0.90;;;27.80;1.00;;;;;;5104922;28;20432;-66
2023/09/15 12:25:12;;;;;;;1.83;0.82;;;27.60;1.00;;;;;;5110675;28;20436;-66
2023/09/15 12:27:40;;;;;;;1.20;0.90;;;26.80;1.00;;;;;;5101917;28;20436;-66
2023/09/15 12:30:08;;;;;;;1.20;0.82;;;26.70;1.00;;;;;;5094416;28;20466;-67
2023/09/15 12:32:36;;;;;;;1.10;0.80;;;26.80;1.00;;;;;;5093586;28;20857;-67
2023/09/15 12:35:09;;;;;;;1.50;0.90;;;27.20;1.00;;;;;;5090727;28;20425;-66
2023/09/15 12:37:42;;;;;;;1.20;0.80;;;27.40;1.00;;;;;;5091353;28;20421;-66
2023/09/15 12:40:11;;;;;;;1.20;0.80;;;27.10;1.00;;;;;;5092096;28;20414;-67
2023/09/15 12:42:38;;;;;;;1.10;0.80;;;27.30;1.00;;;;;;5092628;28;20414;-66
2023/09/15 12:45:07;;;;;;;1.20;0.75;;;27.60;1.00;;;;;;5091066;28;20776;-67
2023/09/15 12:47:34;;;;;;;1.20;0.88;;;27.50;1.00;;;;;;5090208;28;20422;-67
2023/09/15 12:50:05;;;;;;;1.20;0.80;;;27.60;1.00;;;;;;5092612;28;20859;-67
2023/09/15 12:52:32;;;;;;;1.50;0.70;;;27.50;1.00;;;;;;5093392;28;20441;-67
2023/09/15 12:55:01;;;;;;;1.42;0.80;;;27.60;1.00;;;;;;5093761;28;20895;-67
2023/09/15 12:57:28;;;;;;;1.50;0.90;;;27.60;1.00;;;;;;5094336;28;20418;-67
2023/09/15 12:59:56;;;;;;;0.90;0.70;;;27.70;1.00;;;;;;5096388;28;20516;-67